Estación Meteorológica Peña el Pijo (Robertgarden) [ 11/16/19 01:56:09 CET ]

Fecha Hora Presion(HPa) Temp (°C) Humedad % Rocio (°C) Viento ( m/s) Direccion Lluvia 1Hora(mm) Lluvia 24H(mm) LLuvia Total(mm)
2019-Jul-29 01:01:47 1007.200 16.2 64 9.4         344.18
2019-Jul-29 02:01:21 1006.900 15.2 66 9.0         344.18
2019-Jul-29 03:05:12 1006.700 14.6 69 9.0         344.18
2019-Jul-29 04:01:20 1006.700 13.8 72 8.8         344.18
2019-Jul-29 05:01:46 1006.800 13.9 74 9.3         344.18
2019-Jul-29 06:01:54 1006.700 14.3 72 9.3         344.18
2019-Jul-29 07:01:42 1006.900 14.3 70 8.9         344.18
2019-Jul-29 08:01:50 1007.300 14.9 70 9.5         344.18
2019-Jul-29 09:01:48 1007.200 21.1 59 12.8         344.18
2019-Jul-29 10:01:50 1007.300 26.5 44 13.2         344.18
2019-Jul-29 11:01:44 1007.100 29.3 37 13.0         344.18
2019-Jul-29 12:02:15 1007.100 31.2 34 13.4         344.18
2019-Jul-29 13:01:57 1006.800 30.3 33 12.2         344.18
2019-Jul-29 14:01:46 1006.500 33.8 28 12.6         344.18
2019-Jul-29 15:01:54 1006.200 33.6 27 11.8         344.18
2019-Jul-29 16:01:46 1005.900 34.9 26 12.3         344.18
2019-Jul-29 17:01:57 1005.600 33.7 27 11.9         344.18
2019-Jul-29 18:01:41 1005.800 31.4 32 12.6         344.18
2019-Jul-29 19:01:55 1005.700 34.1 28 12.9         344.18
2019-Jul-29 20:01:54 1005.900 31.3 29 11.1         344.18
2019-Jul-29 21:01:51 1006.800 27.8 30 8.6         344.18
2019-Jul-29 22:01:44 1007.600 23.4 40 9.1         344.18
2019-Jul-29 23:01:43 1008.400 20.0 46 8.0         344.18

Temperatura Máxima:34°    Temperatura Mínima:13°
Presión Máxima:1008.400 Hpa    Presión Mínima:1005.600 Hpa


Volver